Currently 43°F in Lake Elsinore, California, USA
43°F
48°F / 43°F
calm
0.00"
Monday, December 6, 2021 6:53 AM PST

Lake Elsinore, California Weather Summary
Last 36 Hours

Temperature Winds Hourly Humidity Dewpoint
Time Report Norm Report Norm Max Gusts Precip. Rpt. Norm Rpt. Norm Pressure
1Mon 06:53 AM  42.7°F  44°F  calm  calm  none  0.00"  79%  80%  36°F  38°F  N/A
3Mon 06:52 AM  42.7°F  44°F  calm  calm  none  ----  79%  80%  36°F  38°F  N/A
Mon 06:00 AM  43.0°F  45°F  calm  calm  3 mph  0.00"  78%  79%  36°F  38°F  N/A
Mon 05:00 AM  43.8°F  45°F  calm  calm  none  0.00"  77%  78%  37°F  38°F  N/A
Mon 04:00 AM  44.6°F  45°F  calm  calm  none  0.00"  75%  77%  37°F  38°F  N/A
Mon 03:00 AM  45.5°F  46°F  calm  calm  2 mph  0.00"  73%  77%  37°F  39°F  N/A
Mon 02:00 AM  46.7°F  47°F  1 mph NW  calm  4 mph  0.00"  72%  75%  38°F  39°F  N/A
Mon 01:00 AM  47.4°F  47°F  calm  calm  2 mph  0.00"  69%  74%  37°F  39°F  N/A
2Mon 12:02 AM  48.5°F  48°F  calm  1 mph  none  ----  66%  72%  37°F  39°F  N/A
Mon 12:00 AM  48.4°F  48°F  calm  calm  none  0.00"  66%  72%  37°F  39°F  N/A
Sun 11:00 PM  49.9°F  49°F  calm  calm  none  0.00"  60%  71%  36°F  40°F  N/A
Sun 10:00 PM  51.4°F  50°F  calm  calm  2 mph  0.00"  57%  68%  36°F  40°F  N/A
Sun 09:00 PM  53.3°F  52°F  calm  calm  4 mph  0.00"  54%  66%  37°F  40°F  N/A
Sun 08:00 PM  55.6°F  53°F  calm  1 mph  none  0.00"  47%  63%  35°F  40°F  N/A
Sun 07:00 PM  59.2°F  55°F  calm  1 mph  7 mph  0.00"  38%  59%  32°F  41°F  N/A
Sun 06:00 PM  63.6°F  57°F  5 mph W  1 mph  10 mph  0.00"  45%  56%  41°F  41°F  N/A
Sun 05:00 PM  68.5°F  61°F  calm  1 mph  4 mph  0.00"  23%  50%  28°F  41°F  N/A
Sun 04:00 PM  77.1°F  66°F  calm  2 mph  10 mph  0.00"  12%  43%  19°F  42°F  N/A
Sun 03:00 PM  81.5°F  69°F  1 mph E  3 mph  14 mph  0.00"  9%  38%  15°F  42°F  N/A
Sun 02:00 PM  81.8°F  70°F  2 mph W  2 mph  12 mph  0.00"  11%  37%  19°F  41°F  N/A
Sun 01:00 PM  78.5°F  69°F  1 mph SE  2 mph  4 mph  0.00"  23%  38%  36°F  41°F  N/A
Sun 12:00 PM  71.7°F  68°F  calm  2 mph  6 mph  0.00"  35%  40%  41°F  42°F  N/A
Sun 11:00 AM  64.6°F  65°F  calm  2 mph  7 mph  0.00"  51%  45%  46°F  43°F  N/A
Sun 10:00 AM  58.5°F  61°F  calm  1 mph  4 mph  0.00"  63%  54%  46°F  44°F  N/A
Sun 09:00 AM  47.9°F  57°F  calm  1 mph  none  0.00"  87%  64%  44°F  45°F  N/A
Sun 08:00 AM  45.5°F  50°F  calm  calm  3 mph  0.00"  86%  75%  41°F  42°F  N/A
Sun 07:00 AM  43.3°F  44°F  calm  1 mph  none  0.00"  85%  79%  39°F  38°F  N/A
Sun 06:00 AM  42.7°F  45°F  calm  calm  none  0.00"  84%  78%  38°F  38°F  N/A
Sun 05:00 AM  42.1°F  45°F  calm  calm  none  0.00"  82%  77%  37°F  38°F  N/A
Sun 04:00 AM  43.3°F  46°F  calm  calm  none  0.00"  81%  76%  38°F  38°F  N/A
Sun 03:00 AM  44.1°F  46°F  calm  calm  none  0.00"  80%  75%  38°F  38°F  N/A
Sun 02:00 AM  44.7°F  47°F  calm  calm  none  0.00"  77%  74%  38°F  39°F  N/A
Sun 01:00 AM  45.7°F  47°F  calm  1 mph  none  0.00"  76%  73%  38°F  39°F  N/A
Sun 12:00 AM  47.0°F  48°F  calm  calm  3 mph  0.00"  74%  71%  39°F  39°F  N/A
Sat 11:00 PM  48.1°F  49°F  calm  calm  3 mph  0.00"  72%  70%  39°F  39°F  N/A
Sat 10:00 PM  49.6°F  50°F  calm  1 mph  none  0.00"  70%  67%  40°F  39°F  N/A
Sat 09:00 PM  51.3°F  52°F  calm  calm  3 mph  0.00"  67%  65%  40°F  40°F  N/A
Sat 08:00 PM  53.2°F  53°F  calm  1 mph  2 mph  0.00"  64%  62%  41°F  40°F  N/A
Sat 07:00 PM  55.7°F  55°F  calm  1 mph  3 mph  0.00"  60%  58%  41°F  40°F  N/A

  1. Current weather data. No green row appears if the current weather data is also the high or low for the current day.
  2. High temperature for the current day.
  3. Low temperature for the current day.

The Lake Elsinore, California weather pages are a service of WeatherCurrents. Lake Elsinore is located south of Corona and north of the Temecula Valley, in southwestern Riverside County, California.
Copyright ©2021  WeatherCurrents. All rights reserved. - Submit questions and comments - Privacy Policy

This page automatically refreshes every 10 minutes.